createdAt,value
2023-02-19T00:01:28.415Z,9.87
2023-02-19T00:03:00.015Z,9.87
2023-02-19T00:04:31.741Z,9.85
2023-02-19T00:06:06.079Z,9.89
2023-02-19T00:07:37.713Z,9.89
2023-02-19T00:09:11.340Z,9.94
2023-02-19T00:10:42.922Z,10.03
2023-02-19T00:12:14.513Z,9.91
2023-02-19T00:13:48.414Z,9.88
2023-02-19T00:15:20.068Z,9.86
2023-02-19T00:16:51.692Z,9.80
2023-02-19T00:18:26.147Z,9.77
2023-02-19T00:19:57.845Z,9.77
2023-02-19T00:21:29.841Z,9.73
2023-02-19T00:23:01.493Z,9.92
2023-02-19T00:24:33.116Z,9.89
2023-02-19T00:26:18.420Z,9.87
2023-02-19T00:27:52.050Z,9.90
2023-02-19T00:29:25.070Z,9.87
2023-02-19T00:30:56.926Z,9.84
2023-02-19T00:32:28.620Z,9.84
2023-02-19T00:34:05.502Z,9.82
2023-02-19T00:35:37.110Z,9.95
2023-02-19T00:37:08.670Z,9.94
2023-02-19T00:38:42.365Z,9.88
2023-02-19T00:40:14.202Z,9.91
2023-02-19T00:41:46.484Z,10.02
2023-02-19T00:43:18.374Z,10.11
2023-02-19T00:44:49.971Z,10.08
2023-02-19T00:46:25.372Z,9.95
2023-02-19T00:47:57.042Z,9.91
2023-02-19T00:49:29.671Z,9.90
2023-02-19T00:51:01.286Z,9.87
2023-02-19T00:52:32.870Z,10.10
2023-02-19T00:54:05.678Z,10.05
2023-02-19T00:55:37.326Z,10.05
2023-02-19T00:57:09.213Z,10.04
2023-02-19T00:58:41.214Z,9.94
2023-02-19T01:00:13.339Z,9.87
2023-02-19T01:01:45.554Z,9.89
2023-02-19T01:03:17.253Z,9.99
2023-02-19T01:04:48.931Z,10.00
2023-02-19T01:06:21.770Z,10.09
2023-02-19T01:07:53.399Z,10.24
2023-02-19T01:09:25.043Z,10.07
2023-02-19T01:10:57.181Z,10.04
2023-02-19T01:12:28.854Z,10.18
2023-02-19T01:14:01.976Z,10.11
2023-02-19T01:15:34.049Z,10.07
2023-02-19T01:17:05.741Z,10.09
2023-02-19T01:18:37.359Z,10.22
2023-02-19T01:20:09.456Z,10.10
2023-02-19T01:21:41.735Z,10.11
2023-02-19T01:23:14.616Z,10.20
2023-02-19T01:24:46.279Z,10.12
2023-02-19T01:26:20.598Z,10.28
2023-02-19T01:27:52.325Z,10.26
2023-02-19T01:29:23.889Z,10.33
2023-02-19T01:30:55.601Z,10.40
2023-02-19T01:32:27.245Z,10.31
2023-02-19T01:34:01.152Z,10.31
2023-02-19T01:35:32.853Z,10.33
2023-02-19T01:37:04.538Z,10.37
2023-02-19T01:38:36.176Z,10.36
2023-02-19T01:40:08.120Z,10.37
2023-02-19T01:41:41.366Z,10.42
2023-02-19T01:43:16.548Z,10.42
2023-02-19T01:44:48.174Z,10.36
2023-02-19T01:46:19.976Z,10.37
2023-02-19T01:48:12.117Z,10.43
2023-02-19T01:49:54.969Z,10.44
2023-02-19T01:51:27.827Z,10.37
2023-02-19T01:53:04.351Z,10.52
2023-02-19T01:54:38.595Z,10.51
2023-02-19T01:56:15.776Z,10.59
2023-02-19T01:57:52.901Z,10.55
2023-02-19T01:59:24.857Z,10.56
2023-02-19T02:00:56.874Z,10.40
2023-02-19T02:02:28.726Z,10.54
2023-02-19T02:04:00.992Z,10.43
2023-02-19T02:06:03.029Z,10.37
2023-02-19T02:07:53.451Z,10.32
2023-02-19T02:09:47.218Z,10.34
2023-02-19T02:11:20.262Z,10.52
2023-02-19T02:12:56.251Z,10.47
2023-02-19T02:14:31.412Z,10.39
2023-02-19T02:16:02.946Z,10.48
2023-02-19T02:17:55.960Z,10.36
2023-02-19T02:19:39.746Z,10.38
2023-02-19T02:21:27.407Z,10.49
2023-02-19T02:23:24.045Z,10.48
2023-02-19T02:25:28.577Z,10.48
2023-02-19T02:27:45.122Z,10.44
2023-02-19T02:29:38.874Z,10.44
2023-02-19T02:31:39.072Z,10.40
2023-02-19T02:33:44.664Z,10.31
2023-02-19T02:35:19.316Z,10.39
2023-02-19T02:36:55.788Z,10.36
2023-02-19T02:38:30.027Z,10.35
2023-02-19T02:40:03.809Z,10.41
2023-02-19T02:41:42.692Z,10.41
2023-02-19T02:43:14.969Z,10.31
2023-02-19T02:45:06.664Z,10.40
2023-02-19T02:46:44.603Z,10.24
2023-02-19T02:48:35.342Z,10.32
2023-02-19T02:50:13.496Z,10.31
2023-02-19T02:51:50.934Z,10.29
2023-02-19T02:53:54.193Z,10.34
2023-02-19T02:55:29.905Z,10.34
2023-02-19T02:57:02.213Z,10.32
2023-02-19T02:58:38.115Z,10.31
2023-02-19T03:00:11.977Z,10.33
2023-02-19T03:02:02.372Z,10.22
2023-02-19T03:03:38.562Z,10.31
2023-02-19T03:05:34.171Z,10.24
2023-02-19T03:07:09.310Z,10.13
2023-02-19T03:08:54.006Z,10.25
2023-02-19T03:10:33.956Z,10.26
2023-02-19T03:12:31.960Z,10.17
2023-02-19T03:14:48.098Z,10.22
2023-02-19T03:16:46.977Z,10.25
2023-02-19T03:18:38.303Z,10.27
2023-02-19T03:20:13.899Z,10.23
2023-02-19T03:21:59.251Z,10.12
2023-02-19T03:23:52.115Z,10.14
2023-02-19T03:25:46.332Z,10.04
2023-02-19T03:27:25.092Z,10.06
2023-02-19T03:29:19.430Z,10.04
2023-02-19T03:30:53.565Z,10.11
2023-02-19T03:32:36.698Z,9.98
2023-02-19T03:34:17.240Z,10.12
2023-02-19T03:36:05.440Z,10.06
2023-02-19T03:37:47.253Z,10.00
2023-02-19T03:39:22.607Z,9.96
2023-02-19T03:40:57.195Z,9.90
2023-02-19T03:42:42.503Z,9.99
2023-02-19T03:44:36.561Z,9.89
2023-02-19T03:46:08.472Z,9.82
2023-02-19T03:47:55.144Z,9.79
2023-02-19T03:49:33.328Z,9.83
2023-02-19T03:51:09.621Z,9.86
2023-02-19T03:52:49.954Z,10.00
2023-02-19T03:54:46.428Z,10.00
2023-02-19T03:56:17.950Z,9.88
2023-02-19T03:58:13.378Z,9.89
2023-02-19T04:00:01.835Z,9.91
2023-02-19T04:01:52.501Z,10.03
2023-02-19T04:03:39.750Z,9.80
2023-02-19T04:05:18.825Z,9.80
2023-02-19T04:06:55.592Z,9.73
2023-02-19T04:08:28.314Z,9.65
2023-02-19T04:10:09.217Z,9.79
2023-02-19T04:11:45.587Z,9.73
2023-02-19T04:13:30.494Z,9.81
2023-02-19T04:15:14.459Z,9.72
2023-02-19T04:16:50.877Z,9.67
2023-02-19T04:18:26.655Z,9.74
2023-02-19T04:20:00.933Z,9.70
2023-02-19T04:21:34.854Z,9.76
2023-02-19T04:23:07.000Z,9.84
2023-02-19T04:24:47.716Z,9.70
2023-02-19T04:26:22.667Z,9.75
2023-02-19T04:27:54.703Z,9.65
2023-02-19T04:29:26.304Z,9.72
2023-02-19T04:30:57.889Z,9.82
2023-02-19T04:32:29.522Z,9.71
2023-02-19T04:34:02.437Z,9.63
2023-02-19T04:35:34.055Z,9.67
2023-02-19T04:37:06.530Z,9.68
2023-02-19T04:38:38.386Z,9.77
2023-02-19T04:40:10.671Z,9.83
2023-02-19T04:41:42.221Z,9.78
2023-02-19T04:43:13.861Z,9.74
2023-02-19T04:44:45.564Z,9.69
2023-02-19T04:46:17.371Z,9.71
2023-02-19T04:47:49.053Z,9.63
2023-02-19T04:49:20.742Z,9.70
2023-02-19T04:50:52.402Z,9.66
2023-02-19T04:52:24.084Z,9.67
2023-02-19T04:53:56.392Z,9.62
2023-02-19T04:55:28.009Z,9.60
2023-02-19T04:56:59.676Z,9.55
2023-02-19T04:58:31.382Z,9.65
2023-02-19T05:00:04.706Z,9.62
2023-02-19T05:01:36.350Z,9.65
2023-02-19T05:03:07.944Z,9.55
2023-02-19T05:04:39.500Z,9.56
2023-02-19T05:06:13.514Z,9.61
2023-02-19T05:07:45.188Z,9.53
2023-02-19T05:09:16.733Z,9.66
2023-02-19T05:10:48.361Z,9.58
2023-02-19T05:12:19.873Z,9.59
2023-02-19T05:13:51.573Z,9.55
2023-02-19T05:15:23.133Z,9.50
2023-02-19T05:16:54.730Z,9.51
2023-02-19T05:18:26.501Z,9.48
2023-02-19T05:19:58.074Z,9.48
2023-02-19T05:21:29.686Z,9.45
2023-02-19T05:23:01.247Z,9.44
2023-02-19T05:24:32.922Z,9.37
2023-02-19T05:26:09.963Z,9.38
2023-02-19T05:27:41.563Z,9.46
2023-02-19T05:29:13.139Z,9.35
2023-02-19T05:30:52.536Z,9.27
2023-02-19T05:32:24.234Z,9.37
2023-02-19T05:33:56.516Z,9.33
2023-02-19T05:35:28.154Z,9.28
2023-02-19T05:36:59.737Z,9.48
2023-02-19T05:38:31.363Z,9.46
2023-02-19T05:40:03.105Z,9.37
2023-02-19T05:41:34.782Z,9.33
2023-02-19T05:43:07.483Z,9.32
2023-02-19T05:44:39.087Z,9.25
2023-02-19T05:46:13.018Z,9.20
2023-02-19T05:47:44.560Z,9.25
2023-02-19T05:49:16.194Z,9.24
2023-02-19T05:50:47.804Z,9.16
2023-02-19T05:52:19.416Z,9.09
2023-02-19T05:53:51.337Z,9.09
2023-02-19T05:55:22.978Z,9.25
2023-02-19T05:56:54.708Z,9.12
2023-02-19T05:58:27.005Z,9.27
2023-02-19T05:59:58.627Z,9.32
2023-02-19T06:01:31.209Z,9.23
2023-02-19T06:03:02.841Z,9.15
2023-02-19T06:04:34.500Z,9.04
2023-02-19T06:06:06.365Z,9.25
2023-02-19T06:07:42.834Z,9.13
2023-02-19T06:09:14.468Z,9.13
2023-02-19T06:10:46.148Z,9.11
2023-02-19T06:12:17.749Z,9.15
2023-02-19T06:13:52.295Z,9.10
2023-02-19T06:15:24.021Z,9.08
2023-02-19T06:16:55.739Z,9.06
2023-02-19T06:18:27.279Z,9.14
2023-02-19T06:19:59.009Z,9.13
2023-02-19T06:21:30.753Z,9.13
2023-02-19T06:23:02.382Z,9.12
2023-02-19T06:24:34.296Z,9.25
2023-02-19T06:26:11.824Z,9.21
2023-02-19T06:27:43.441Z,9.11
2023-02-19T06:29:16.561Z,9.27
2023-02-19T06:30:50.104Z,9.18
2023-02-19T06:32:23.425Z,9.16
2023-02-19T06:33:55.353Z,9.16
2023-02-19T06:35:26.963Z,9.11
2023-02-19T06:36:59.033Z,9.18
2023-02-19T06:38:31.203Z,9.09
2023-02-19T06:40:02.870Z,9.14
2023-02-19T06:41:34.498Z,9.16
2023-02-19T06:43:06.124Z,9.24
2023-02-19T06:44:37.772Z,9.29
2023-02-19T06:46:12.904Z,9.18
2023-02-19T06:47:44.719Z,9.10
2023-02-19T06:49:16.595Z,9.07
2023-02-19T06:50:48.157Z,9.02
2023-02-19T06:52:19.885Z,9.10
2023-02-19T06:53:51.532Z,8.97
2023-02-19T06:55:23.165Z,8.91
2023-02-19T06:56:57.134Z,8.86
2023-02-19T06:58:29.279Z,8.87
2023-02-19T07:00:00.938Z,8.94
2023-02-19T07:01:34.122Z,8.98
2023-02-19T07:03:05.763Z,9.02
2023-02-19T07:04:37.376Z,8.99
2023-02-19T07:06:09.289Z,9.02
2023-02-19T07:07:40.873Z,8.99
2023-02-19T07:09:12.621Z,8.89
2023-02-19T07:10:45.707Z,8.89
2023-02-19T07:12:17.270Z,8.88
2023-02-19T07:13:53.852Z,8.80
2023-02-19T07:15:25.510Z,8.71
2023-02-19T07:16:57.169Z,8.66
2023-02-19T07:18:30.507Z,8.68
2023-02-19T07:20:02.325Z,8.87
2023-02-19T07:21:37.665Z,8.79
2023-02-19T07:23:09.410Z,8.93
2023-02-19T07:24:41.024Z,9.00
2023-02-19T07:26:18.094Z,8.93
2023-02-19T07:27:49.729Z,8.89
2023-02-19T07:29:21.393Z,8.89
2023-02-19T07:30:53.473Z,8.89
2023-02-19T07:32:25.351Z,8.89
2023-02-19T07:33:57.243Z,8.95
2023-02-19T07:35:28.882Z,8.88
2023-02-19T07:37:00.681Z,9.04
2023-02-19T07:38:32.341Z,8.90
2023-02-19T07:40:04.493Z,9.00
2023-02-19T07:41:36.124Z,9.04
2023-02-19T07:43:07.840Z,8.98
2023-02-19T07:44:39.491Z,8.94
2023-02-19T07:46:13.076Z,9.05
2023-02-19T07:47:44.879Z,9.08
2023-02-19T07:49:16.639Z,9.14
2023-02-19T07:50:52.475Z,9.21
2023-02-19T07:52:24.370Z,9.12
2023-02-19T07:53:56.051Z,9.17
2023-02-19T07:55:27.712Z,9.07
2023-02-19T07:56:59.759Z,9.15
2023-02-19T07:58:32.361Z,9.08
2023-02-19T08:00:04.434Z,9.03
2023-02-19T08:02:02.897Z,9.05
2023-02-19T08:03:35.640Z,9.25
2023-02-19T08:05:08.164Z,9.23
2023-02-19T08:06:40.884Z,9.18
2023-02-19T08:08:14.577Z,9.16
2023-02-19T08:10:06.133Z,9.21
2023-02-19T08:11:55.999Z,9.25
2023-02-19T08:13:30.823Z,9.29
2023-02-19T08:15:02.513Z,9.34
2023-02-19T08:16:42.885Z,9.31
2023-02-19T08:18:16.746Z,9.24
2023-02-19T08:19:48.401Z,9.27
2023-02-19T08:21:20.665Z,9.33
2023-02-19T08:22:52.302Z,9.26
2023-02-19T08:24:24.007Z,9.34
2023-02-19T08:25:58.779Z,9.34
2023-02-19T08:27:30.450Z,9.29
2023-02-19T08:29:02.738Z,9.22
2023-02-19T08:30:35.517Z,9.17
2023-02-19T08:32:07.304Z,9.15
2023-02-19T08:33:40.259Z,9.11
2023-02-19T08:35:11.903Z,9.11
2023-02-19T08:36:44.216Z,9.13
2023-02-19T08:38:16.543Z,9.21
2023-02-19T08:39:48.155Z,9.34
2023-02-19T08:41:19.805Z,9.43
2023-02-19T08:42:51.644Z,9.42
2023-02-19T08:44:23.313Z,9.33
2023-02-19T08:45:55.580Z,9.34
2023-02-19T08:47:27.265Z,9.33
2023-02-19T08:48:58.862Z,9.33
2023-02-19T08:50:30.850Z,9.33
2023-02-19T08:52:02.534Z,9.40
2023-02-19T08:53:35.786Z,9.41
2023-02-19T08:55:07.568Z,9.32
2023-02-19T08:56:39.275Z,9.41
2023-02-19T08:58:11.290Z,9.44
2023-02-19T08:59:42.887Z,9.50
2023-02-19T09:01:18.356Z,9.60
2023-02-19T09:02:50.690Z,9.53
2023-02-19T09:04:22.306Z,9.44
2023-02-19T09:05:53.924Z,9.54
2023-02-19T09:07:25.679Z,9.59
2023-02-19T09:08:57.398Z,9.59
2023-02-19T09:10:29.136Z,9.50
2023-02-19T09:12:00.789Z,9.36
2023-02-19T09:13:32.975Z,9.37
2023-02-19T09:15:05.842Z,9.38
2023-02-19T09:16:37.447Z,9.45
2023-02-19T09:18:09.114Z,9.39
2023-02-19T09:19:40.780Z,9.42
2023-02-19T09:21:12.778Z,9.35
2023-02-19T09:22:44.734Z,9.24
2023-02-19T09:24:16.383Z,9.36
2023-02-19T09:25:48.034Z,9.40
2023-02-19T09:27:20.398Z,9.44
2023-02-19T09:28:52.081Z,9.47
2023-02-19T09:30:24.757Z,9.39
2023-02-19T09:31:58.300Z,9.36
2023-02-19T09:33:30.287Z,9.37
2023-02-19T09:35:01.866Z,9.35
2023-02-19T09:36:33.570Z,9.44
2023-02-19T09:38:05.292Z,9.49
2023-02-19T09:39:37.066Z,9.56
2023-02-19T09:41:27.547Z,9.64
2023-02-19T09:43:00.962Z,9.69
2023-02-19T09:44:37.774Z,9.72
2023-02-19T09:46:23.948Z,9.74
2023-02-19T09:47:58.205Z,9.65
2023-02-19T09:49:35.427Z,9.74
2023-02-19T09:51:11.157Z,9.75
2023-02-19T09:52:54.994Z,9.59
2023-02-19T09:54:29.758Z,9.54
2023-02-19T09:56:01.639Z,9.47
2023-02-19T09:57:36.120Z,9.51
2023-02-19T09:59:22.095Z,9.55
2023-02-19T10:00:56.900Z,9.66
2023-02-19T10:02:30.886Z,9.52
2023-02-19T10:04:03.995Z,9.63
2023-02-19T10:05:35.889Z,9.73
2023-02-19T10:07:13.302Z,9.67
2023-02-19T10:08:46.040Z,9.72
2023-02-19T10:10:37.947Z,9.77
2023-02-19T10:12:19.300Z,9.72
2023-02-19T10:14:09.369Z,9.69
2023-02-19T10:15:53.545Z,9.58
2023-02-19T10:17:29.638Z,9.59
2023-02-19T10:19:01.467Z,9.54
2023-02-19T10:20:33.820Z,9.45
2023-02-19T10:22:05.767Z,9.55
2023-02-19T10:23:39.437Z,9.46
2023-02-19T10:25:17.288Z,9.53
2023-02-19T10:26:50.285Z,9.56
2023-02-19T10:28:26.222Z,9.47
2023-02-19T10:29:58.926Z,9.51
2023-02-19T10:31:33.383Z,9.34
2023-02-19T10:33:05.307Z,9.21
2023-02-19T10:34:36.932Z,9.12
2023-02-19T10:36:24.900Z,9.20
2023-02-19T10:37:57.553Z,9.34
2023-02-19T10:39:42.282Z,9.61
2023-02-19T10:41:15.452Z,9.94
2023-02-19T10:42:49.247Z,10.02
2023-02-19T10:44:28.043Z,10.04
2023-02-19T10:46:31.264Z,10.40
2023-02-19T10:48:03.785Z,10.35
2023-02-19T10:49:43.393Z,10.20
2023-02-19T10:51:20.870Z,9.93
2023-02-19T10:52:55.872Z,10.02
2023-02-19T10:54:31.226Z,10.26
2023-02-19T10:56:07.684Z,10.21
2023-02-19T10:57:40.498Z,10.25
2023-02-19T10:59:18.384Z,10.09
2023-02-19T11:01:12.954Z,10.10
2023-02-19T11:02:45.541Z,10.08
2023-02-19T11:04:19.838Z,10.02
2023-02-19T11:05:59.995Z,10.19
2023-02-19T11:07:32.412Z,10.20
2023-02-19T11:09:04.602Z,10.17
2023-02-19T11:10:42.404Z,10.13
2023-02-19T11:12:23.503Z,10.22
2023-02-19T11:13:57.327Z,10.38
2023-02-19T11:15:33.520Z,10.45
2023-02-19T11:17:05.932Z,10.42
2023-02-19T11:18:38.630Z,10.35
2023-02-19T11:20:17.743Z,10.38
2023-02-19T11:21:50.273Z,10.36
2023-02-19T11:23:31.544Z,10.42
2023-02-19T11:25:05.948Z,10.39
2023-02-19T11:26:38.276Z,10.43
2023-02-19T11:28:20.054Z,10.30
2023-02-19T11:29:51.892Z,10.42
2023-02-19T11:31:35.865Z,10.50
2023-02-19T11:33:16.205Z,10.47
2023-02-19T11:34:48.556Z,10.29
2023-02-19T11:36:20.241Z,10.40
2023-02-19T11:37:56.825Z,10.32
2023-02-19T11:39:31.211Z,10.30
2023-02-19T11:41:31.835Z,10.33
2023-02-19T11:43:26.392Z,10.31
2023-02-19T11:45:15.874Z,10.35
2023-02-19T11:46:53.780Z,10.41
2023-02-19T11:48:48.365Z,10.47
2023-02-19T11:50:42.897Z,10.42
2023-02-19T11:52:32.335Z,10.49
2023-02-19T11:54:04.130Z,10.59
2023-02-19T11:55:57.254Z,10.36
2023-02-19T11:57:36.057Z,10.44
2023-02-19T11:59:21.133Z,10.50
2023-02-19T12:01:05.713Z,10.57
2023-02-19T12:02:47.424Z,10.46
2023-02-19T12:04:38.013Z,10.46
2023-02-19T12:06:25.806Z,10.60
2023-02-19T12:08:15.954Z,10.52
2023-02-19T12:10:09.216Z,10.58
2023-02-19T12:12:10.302Z,10.86
2023-02-19T12:14:08.919Z,11.29
2023-02-19T12:16:29.851Z,10.91
2023-02-19T12:18:16.186Z,10.77
2023-02-19T12:20:06.679Z,10.65
2023-02-19T12:21:50.808Z,10.72
2023-02-19T12:23:41.090Z,10.82
2023-02-19T12:25:38.556Z,10.67
2023-02-19T12:27:25.390Z,10.68
2023-02-19T12:29:11.987Z,10.75
2023-02-19T12:30:51.749Z,10.50
2023-02-19T12:32:46.591Z,10.42
2023-02-19T12:34:36.424Z,10.38
2023-02-19T12:36:35.836Z,10.32
2023-02-19T12:38:32.594Z,10.16
2023-02-19T12:40:33.395Z,10.25
2023-02-19T12:42:14.150Z,10.30
2023-02-19T12:44:01.649Z,10.18
2023-02-19T12:45:45.222Z,10.15
2023-02-19T12:47:25.890Z,10.30
2023-02-19T12:49:25.487Z,10.28
2023-02-19T12:51:05.588Z,10.33
2023-02-19T12:52:42.156Z,10.19
2023-02-19T12:54:46.116Z,10.33
2023-02-19T12:56:25.317Z,10.41
2023-02-19T12:58:01.464Z,10.42
2023-02-19T13:00:00.156Z,10.40
2023-02-19T13:01:43.226Z,10.32
2023-02-19T13:03:21.083Z,10.38
2023-02-19T13:05:11.526Z,10.29
2023-02-19T13:06:51.691Z,10.40
2023-02-19T13:08:35.625Z,10.42
2023-02-19T13:10:10.882Z,10.62
2023-02-19T13:11:53.440Z,10.59
2023-02-19T13:13:32.689Z,10.82
2023-02-19T13:15:10.095Z,10.99
2023-02-19T13:16:46.745Z,11.15
2023-02-19T13:18:24.112Z,11.35
2023-02-19T13:20:01.611Z,11.32
2023-02-19T13:21:56.645Z,11.34
2023-02-19T13:23:51.629Z,11.63
2023-02-19T13:25:29.106Z,11.83
2023-02-19T13:27:31.615Z,12.30
2023-02-19T13:29:18.356Z,12.24
2023-02-19T13:31:14.235Z,12.10
2023-02-19T13:33:23.740Z,11.99
2023-02-19T13:35:22.883Z,11.83
2023-02-19T13:36:55.871Z,11.77
2023-02-19T13:38:28.182Z,11.87
2023-02-19T13:40:06.280Z,11.81
2023-02-19T13:41:49.025Z,11.62
2023-02-19T13:43:39.126Z,11.52
2023-02-19T13:45:23.010Z,11.63
2023-02-19T13:46:54.700Z,11.60
2023-02-19T13:48:34.118Z,11.46
2023-02-19T13:50:09.005Z,11.42
2023-02-19T13:51:49.583Z,11.38
2023-02-19T13:53:46.036Z,11.34
2023-02-19T13:55:42.814Z,11.27
2023-02-19T13:57:23.288Z,11.22
2023-02-19T13:58:58.681Z,11.25
2023-02-19T14:00:52.183Z,11.16
2023-02-19T14:02:26.767Z,11.15
2023-02-19T14:04:18.649Z,10.97
2023-02-19T14:06:02.660Z,10.84
2023-02-19T14:07:36.279Z,10.80
2023-02-19T14:09:37.053Z,10.69
2023-02-19T14:11:09.068Z,10.82
2023-02-19T14:12:41.056Z,10.72
2023-02-19T14:14:28.380Z,10.73
2023-02-19T14:16:00.288Z,10.53
2023-02-19T14:17:45.754Z,10.51
2023-02-19T14:19:42.080Z,10.51
2023-02-19T14:21:26.050Z,10.44
2023-02-19T14:23:13.850Z,10.36
2023-02-19T14:24:46.081Z,10.33
2023-02-19T14:26:18.286Z,10.42
2023-02-19T14:27:53.164Z,10.48
2023-02-19T14:29:25.004Z,10.51
2023-02-19T14:30:56.817Z,10.27
2023-02-19T14:32:28.597Z,10.25
2023-02-19T14:34:04.795Z,10.12
2023-02-19T14:35:41.734Z,10.06
2023-02-19T14:37:21.011Z,9.99
2023-02-19T14:39:11.072Z,9.95
2023-02-19T14:40:46.397Z,10.04
2023-02-19T14:42:23.823Z,10.05
2023-02-19T14:43:58.529Z,10.09
2023-02-19T14:45:43.358Z,10.11
2023-02-19T14:47:19.420Z,10.09
2023-02-19T14:48:51.715Z,10.04
2023-02-19T14:50:32.922Z,10.10
2023-02-19T14:52:11.146Z,9.98
2023-02-19T14:53:45.564Z,9.91
2023-02-19T14:55:29.627Z,9.91
2023-02-19T14:57:03.879Z,9.76
2023-02-19T14:58:36.946Z,9.94
2023-02-19T15:00:24.003Z,9.93
2023-02-19T15:02:09.970Z,9.99
2023-02-19T15:03:42.082Z,9.86
2023-02-19T15:05:25.640Z,9.80
2023-02-19T15:07:02.306Z,10.03
2023-02-19T15:08:39.149Z,10.03
2023-02-19T15:10:14.271Z,9.97
2023-02-19T15:11:46.502Z,9.90
2023-02-19T15:13:25.772Z,9.90
2023-02-19T15:15:02.960Z,9.90
2023-02-19T15:16:36.594Z,9.85
2023-02-19T15:18:08.444Z,9.83
2023-02-19T15:19:43.353Z,9.87
2023-02-19T15:21:24.734Z,9.95
2023-02-19T15:22:58.731Z,9.90
2023-02-19T15:24:32.795Z,9.88
2023-02-19T15:26:04.746Z,9.89
2023-02-19T15:27:37.426Z,9.85
2023-02-19T15:29:14.581Z,9.83
2023-02-19T15:30:46.516Z,9.85
2023-02-19T15:32:22.713Z,9.97
2023-02-19T15:33:54.911Z,10.05
2023-02-19T15:35:28.977Z,10.05
2023-02-19T15:37:04.629Z,9.99
2023-02-19T15:38:37.082Z,9.91
2023-02-19T15:40:14.227Z,9.96
2023-02-19T15:41:52.433Z,9.98
2023-02-19T15:43:30.013Z,9.95
2023-02-19T15:45:05.319Z,9.98
2023-02-19T15:46:38.200Z,9.81
2023-02-19T15:48:16.436Z,9.76
2023-02-19T15:50:20.404Z,9.69
2023-02-19T15:52:05.803Z,9.72
2023-02-19T15:53:45.561Z,9.81
2023-02-19T15:55:39.248Z,9.76
2023-02-19T15:57:17.348Z,9.84
2023-02-19T15:58:54.055Z,9.85
2023-02-19T16:00:40.155Z,9.89
2023-02-19T16:02:14.407Z,9.83
2023-02-19T16:03:48.076Z,9.67
2023-02-19T16:05:26.706Z,9.65
2023-02-19T16:07:01.303Z,9.60
2023-02-19T16:08:35.477Z,9.49
2023-02-19T16:10:23.200Z,9.43
2023-02-19T16:11:58.154Z,9.40
2023-02-19T16:13:32.973Z,9.52
2023-02-19T16:15:15.013Z,9.57
2023-02-19T16:16:50.761Z,9.46
2023-02-19T16:18:22.459Z,9.39
2023-02-19T16:20:01.439Z,9.31
2023-02-19T16:21:33.267Z,9.29
2023-02-19T16:23:14.756Z,9.29
2023-02-19T16:24:50.256Z,9.31
2023-02-19T16:26:22.110Z,9.24
2023-02-19T16:27:54.599Z,9.21
2023-02-19T16:29:30.443Z,9.13
2023-02-19T16:31:05.832Z,9.13
2023-02-19T16:32:37.756Z,9.33
2023-02-19T16:34:30.640Z,9.21
2023-02-19T16:36:32.677Z,9.07
2023-02-19T16:38:13.680Z,9.09
2023-02-19T16:39:45.364Z,8.96
2023-02-19T16:41:17.110Z,8.89
2023-02-19T16:42:48.670Z,8.88
2023-02-19T16:44:30.964Z,9.07
2023-02-19T16:46:02.651Z,9.04
2023-02-19T16:47:41.429Z,8.76
2023-02-19T16:49:13.362Z,8.72
2023-02-19T16:50:46.280Z,8.75
2023-02-19T16:52:18.174Z,8.56
2023-02-19T16:53:49.879Z,8.57
2023-02-19T16:55:22.134Z,8.74
2023-02-19T16:56:53.833Z,8.76
2023-02-19T16:58:26.131Z,8.66
2023-02-19T16:59:57.877Z,8.58
2023-02-19T17:01:30.024Z,8.69
2023-02-19T17:03:09.068Z,8.68
2023-02-19T17:04:40.803Z,8.64
2023-02-19T17:06:13.016Z,8.79
2023-02-19T17:07:44.768Z,8.87
2023-02-19T17:09:16.432Z,8.77
2023-02-19T17:10:48.191Z,8.68
2023-02-19T17:12:23.408Z,8.64
2023-02-19T17:13:55.144Z,8.60
2023-02-19T17:15:26.826Z,8.58
2023-02-19T17:17:00.506Z,8.59
2023-02-19T17:18:33.903Z,8.59
2023-02-19T17:20:17.653Z,8.57
2023-02-19T17:21:49.759Z,8.59
2023-02-19T17:23:22.999Z,8.60
2023-02-19T17:24:56.147Z,8.53
2023-02-19T17:26:29.940Z,8.48
2023-02-19T17:28:01.602Z,8.46
2023-02-19T17:29:36.927Z,8.47
2023-02-19T17:31:11.103Z,8.45
2023-02-19T17:32:42.899Z,8.48
2023-02-19T17:34:14.641Z,8.61
2023-02-19T17:35:46.317Z,8.79
2023-02-19T17:37:17.985Z,8.92
2023-02-19T17:38:49.724Z,8.71
2023-02-19T17:40:33.235Z,8.58
2023-02-19T17:42:06.100Z,8.49
2023-02-19T17:43:37.842Z,8.42
2023-02-19T17:45:09.592Z,8.37
2023-02-19T17:46:41.883Z,8.37
2023-02-19T17:48:14.680Z,8.45
2023-02-19T17:49:46.512Z,8.44
2023-02-19T17:51:18.338Z,8.39
2023-02-19T17:52:50.166Z,8.34
2023-02-19T17:54:21.837Z,8.42
2023-02-19T17:55:53.524Z,8.30
2023-02-19T17:57:26.067Z,8.28
2023-02-19T17:58:58.506Z,8.33
2023-02-19T18:00:31.732Z,8.33
2023-02-19T18:02:03.608Z,8.34
2023-02-19T18:03:35.707Z,8.40
2023-02-19T18:05:07.738Z,8.27
2023-02-19T18:06:39.541Z,8.14
2023-02-19T18:08:11.540Z,8.07
2023-02-19T18:09:43.499Z,8.22
2023-02-19T18:11:15.816Z,8.30
2023-02-19T18:12:47.658Z,8.23
2023-02-19T18:14:19.617Z,8.13
2023-02-19T18:15:51.382Z,8.21
2023-02-19T18:17:24.614Z,8.20
2023-02-19T18:18:58.633Z,8.12
2023-02-19T18:20:31.697Z,8.03
2023-02-19T18:22:05.241Z,7.98
2023-02-19T18:23:38.560Z,7.91
2023-02-19T18:25:11.671Z,7.91
2023-02-19T18:26:43.812Z,7.94
2023-02-19T18:28:16.590Z,8.01
2023-02-19T18:29:52.196Z,7.98
2023-02-19T18:31:24.114Z,8.03
2023-02-19T18:32:55.825Z,8.07
2023-02-19T18:34:27.524Z,8.20
2023-02-19T18:35:59.426Z,8.29
2023-02-19T18:37:32.983Z,8.39
2023-02-19T18:39:04.795Z,8.26
2023-02-19T18:40:36.609Z,8.19
2023-02-19T18:42:08.388Z,8.12
2023-02-19T18:43:43.264Z,8.23
2023-02-19T18:45:14.949Z,8.27
2023-02-19T18:46:46.809Z,8.25
2023-02-19T18:48:18.626Z,8.15
2023-02-19T18:49:52.721Z,8.11
2023-02-19T18:51:24.492Z,8.15
2023-02-19T18:52:56.346Z,8.07
2023-02-19T18:54:29.580Z,8.04
2023-02-19T18:56:02.067Z,8.07
2023-02-19T18:57:33.736Z,8.04
2023-02-19T18:59:05.512Z,8.10
2023-02-19T19:00:37.294Z,8.01
2023-02-19T19:02:10.212Z,7.96
2023-02-19T19:03:41.953Z,7.91
2023-02-19T19:05:13.751Z,7.90
2023-02-19T19:06:45.440Z,7.92
2023-02-19T19:08:17.234Z,7.95
2023-02-19T19:09:49.209Z,7.89
2023-02-19T19:11:22.688Z,7.89
2023-02-19T19:12:54.611Z,7.81
2023-02-19T19:14:26.698Z,7.82
2023-02-19T19:15:58.504Z,7.82
2023-02-19T19:17:30.156Z,7.78
2023-02-19T19:19:02.228Z,7.71
2023-02-19T19:20:34.210Z,7.73
2023-02-19T19:22:05.872Z,7.91
2023-02-19T19:23:37.621Z,7.91
2023-02-19T19:25:09.558Z,7.82
2023-02-19T19:26:48.224Z,7.78
2023-02-19T19:28:20.598Z,7.80
2023-02-19T19:29:52.528Z,7.80
2023-02-19T19:31:25.127Z,7.79
2023-02-19T19:32:57.443Z,7.73
2023-02-19T19:34:29.769Z,7.73
2023-02-19T19:36:01.518Z,7.72
2023-02-19T19:37:33.228Z,7.76
2023-02-19T19:39:05.650Z,7.72
2023-02-19T19:40:37.489Z,7.68
2023-02-19T19:42:09.850Z,7.82
2023-02-19T19:43:41.641Z,7.84
2023-02-19T19:45:13.866Z,7.80
2023-02-19T19:46:45.935Z,7.76
2023-02-19T19:48:17.538Z,7.82
2023-02-19T19:49:49.241Z,7.97
2023-02-19T19:51:21.113Z,7.89
2023-02-19T19:52:52.982Z,7.88
2023-02-19T19:54:24.798Z,7.85
2023-02-19T19:55:56.688Z,8.04
2023-02-19T19:57:28.507Z,8.08
2023-02-19T19:59:00.192Z,8.12
2023-02-19T20:00:31.905Z,8.01
2023-02-19T20:02:03.759Z,8.01
2023-02-19T20:03:35.509Z,8.07
2023-02-19T20:05:07.380Z,8.03
2023-02-19T20:06:39.186Z,8.05
2023-02-19T20:08:10.980Z,7.93
2023-02-19T20:09:46.928Z,8.07
2023-02-19T20:11:18.524Z,8.00
2023-02-19T20:12:50.358Z,8.03
2023-02-19T20:14:24.062Z,7.94
2023-02-19T20:15:56.226Z,7.97
2023-02-19T20:17:28.978Z,7.91
2023-02-19T20:19:00.816Z,7.89
2023-02-19T20:20:32.517Z,7.83
2023-02-19T20:22:04.335Z,7.73
2023-02-19T20:23:38.667Z,7.66
2023-02-19T20:25:11.409Z,7.58
2023-02-19T20:26:44.136Z,7.54
2023-02-19T20:28:16.019Z,7.57
2023-02-19T20:29:48.145Z,7.58
2023-02-19T20:31:20.683Z,7.57
2023-02-19T20:32:53.619Z,7.55
2023-02-19T20:34:26.566Z,7.78
2023-02-19T20:35:58.270Z,7.77
2023-02-19T20:37:29.929Z,7.76
2023-02-19T20:39:01.747Z,7.73
2023-02-19T20:40:33.898Z,7.87
2023-02-19T20:42:06.383Z,7.71
2023-02-19T20:43:38.284Z,7.75
2023-02-19T20:45:10.034Z,7.83
2023-02-19T20:46:46.682Z,7.78
2023-02-19T20:48:18.493Z,7.64
2023-02-19T20:49:51.683Z,7.73
2023-02-19T20:51:23.837Z,7.68
2023-02-19T20:52:55.789Z,7.63
2023-02-19T20:54:30.705Z,7.68
2023-02-19T20:56:02.753Z,7.58
2023-02-19T20:57:34.557Z,7.65
2023-02-19T20:59:06.332Z,7.59
2023-02-19T21:00:38.015Z,7.53
2023-02-19T21:02:17.683Z,7.45
2023-02-19T21:03:49.457Z,7.41
2023-02-19T21:05:21.417Z,7.51
2023-02-19T21:06:53.367Z,7.45
2023-02-19T21:08:25.097Z,7.44
2023-02-19T21:09:57.328Z,7.51
2023-02-19T21:11:29.071Z,7.56